Flight Track Log - Related Links

Times and Time Zones

All times are in EDT time to prevent confusion due to time zone crossing. See the SWA3497 flight status page for this flight to view local times or setup timezone preferences in your user account.

Time Position Orientation Groundspeed Altitude Reporting Facility
EDT Latitude Longitude Course Direction KTS MPH feet Rate Location/Type
Thu 12:31:49 PM 41.7833 -87.8000 173° South 180 207 2,400  Level Chicago TRACON
Thu 12:34:21 PM 41.6469 -87.9128 212° Southwest 265 305 6,900 2,159 Climbing Chicago Center
Thu 12:35:23 PM 41.5703 -87.8917 168° South 291 335 10,100 3,242 Climbing Chicago Center
Thu 12:36:25 PM 41.4994 -87.8111 140° Southeast 332 382 13,600 3,677 Climbing Chicago Center
Thu 12:37:00 PM 41.0538 -87.6954 173° South  Level FlightAware Approximate
Thu 12:37:27 PM 41.4100 -87.7767 164° South 334 384 17,700  Level Chicago Center
Thu 12:38:30 PM 41.3153 -87.7533 170° South 340 391 20,800 1,584 Climbing Chicago Center
Thu 12:39:32 PM 41.1986 -87.7214 168° South 352 405 21,000 726 Climbing Chicago Center
Thu 12:40:34 PM 41.0997 -87.6942 168° South 360 414 22,300 968 Climbing Chicago Center
Thu 12:41:36 PM 40.9936 -87.6633 168° South 383 441 23,000 339 Climbing Chicago Center
Thu 12:42:38 PM 40.8789 -87.6297 168° South 417 480 23,000  Level Chicago Center
Thu 12:43:40 PM 40.7664 -87.5978 168° South 417 480 23,000  Level Chicago Center
Thu 12:44:42 PM 40.6542 -87.5658 168° South 415 478 23,000  Level Chicago Center
Thu 12:45:44 PM 40.5194 -87.5289 168° South 414 476 23,000  Level Chicago Center
Thu 12:46:46 PM 40.4067 -87.4972 168° South 416 479 23,000  Level Chicago Center
Thu 12:47:49 PM 40.2933 -87.4661 168° South 417 480 23,000  Level Chicago Center
Thu 12:48:50 PM 40.1689 -87.4342 169° South 420 483 23,000  Level Chicago Center
Thu 12:49:33 PM 40.0900 -87.4136 169° South 420 483 23,000  Level Indianapolis Center
Thu 12:50:35 PM 39.9758 -87.3814 168° South 420 483 23,000  Level Indianapolis Center
Thu 12:51:37 PM 39.8597 -87.3494 168° South 423 487 23,000  Level Indianapolis Center
Thu 12:52:39 PM 39.7247 -87.3131 168° South 424 488 23,000  Level Indianapolis Center
Thu 12:53:41 PM 39.6119 -87.2661 162° South 427 491 23,000  Level Indianapolis Center
Thu 12:54:43 PM 39.5144 -87.1606 140° Southeast 455 524 23,000  Level Indianapolis Center
Thu 12:55:45 PM 39.4169 -87.0564 140° Southeast 455 524 23,000  Level Indianapolis Center
Thu 12:56:47 PM 39.3203 -86.9514 140° Southeast 453 521 23,000 -194 Level Indianapolis Center
Thu 12:57:49 PM 39.2233 -86.8464 140° Southeast 454 522 22,600 -1,065 Descending Indianapolis Center
Thu 12:58:51 PM 39.1175 -86.7319 140° Southeast 445 512 20,800 -1,839 Descending Indianapolis Center
Thu 12:59:53 PM 39.0261 -86.6342 140° Southeast 428 493 18,800 -2,032 Descending Indianapolis Center
Thu 01:00:55 PM 38.9361 -86.5383 140° Southeast 406 467 16,600 -2,032 Descending Indianapolis Center
Thu 01:01:57 PM 38.8544 -86.4517 140° Southeast 398 458 14,600 -1,984 Descending Indianapolis Center
Thu 01:02:59 PM 38.7731 -86.3636 140° Southeast 386 444 12,500 -1,742 Descending Indianapolis Center
Thu 01:04:01 PM 38.6947 -86.2800 140° Southeast 371 427 11,000 -1,403 Descending Indianapolis Center
Thu 01:05:03 PM 38.6256 -86.1650 128° Southeast 340 391 9,600 -1,294 Descending Indianapolis Center
Thu 01:05:43 PM 38.5936 -86.1086 126° Southeast 317 365 8,800 -1,220 Descending FAA TRACON SMA TRACON (SMA)
Thu 01:06:02 PM 38.5783 -86.0803 125° Southeast 314 361 8,400 -1,500 Descending FAA TRACON SMA TRACON (SMA)
Thu 01:06:23 PM 38.5594 -86.0450 124° Southeast 312 359 7,800 -1,610 Descending FAA TRACON SMA TRACON (SMA)
Thu 01:06:43 PM 38.5444 -86.0181 125° Southeast 307 353 7,300 -1,385 Descending FAA TRACON SMA TRACON (SMA)
Thu 01:07:02 PM 38.5297 -85.9906 124° Southeast 307 353 6,900 -1,500 Descending FAA TRACON SMA TRACON (SMA)
Thu 01:07:23 PM 38.5108 -85.9572 126° Southeast 302 348 6,300 -1,500 Descending FAA TRACON SMA TRACON (SMA)
Thu 01:07:42 PM 38.4964 -85.9297 124° Southeast 301 346 5,900 -1,200 Descending FAA TRACON SMA TRACON (SMA)
Thu 01:08:03 PM 38.4783 -85.8961 124° Southeast 300 345 5,500 -900 Descending FAA TRACON SMA TRACON (SMA)
Thu 01:08:22 PM 38.4644 -85.8703 124° Southeast 293 337 5,300 -615 Descending FAA TRACON SMA TRACON (SMA)
Thu 01:08:42 PM 38.4508 -85.8447 124° Southeast 284 327 5,100 -585 Descending FAA TRACON SMA TRACON (SMA)
Thu 01:09:03 PM 38.4333 -85.8189 131° Southeast 263 303 4,900 -300 Descending FAA TRACON SMA TRACON (SMA)
Thu 01:09:22 PM 38.4158 -85.8094 157° South 236 272 4,900 -450 Level FAA TRACON SMA TRACON (SMA)
Thu 01:09:43 PM 38.3983 -85.8036 165° South 213 245 4,600 -682 Descending FAA TRACON SMA TRACON (SMA)
Thu 01:10:06 PM 38.3814 -85.7981 166° South 204 235 4,400 -1,050 Descending FAA TRACON SMA TRACON (SMA)
Thu 01:11:03 PM 38.3253 -85.7786 165° South 189 217 3,200 -1,105 Descending FAA TRACON SMA TRACON (SMA)
Thu 01:11:22 PM 38.3108 -85.7736 165° South 180 207 3,000 -750 Descending FAA TRACON SMA TRACON (SMA)
Thu 01:11:43 PM 38.2969 -85.7689 165° South 167 192 2,700 -900 Descending FAA TRACON SMA TRACON (SMA)
Thu 01:12:02 PM 38.2847 -85.7644 164° South 153 176 2,400 -923 Descending FAA TRACON SMA TRACON (SMA)
Thu 01:12:22 PM 38.2708 -85.7594 164° South 138 159 2,100 -732 Descending FAA TRACON SMA TRACON (SMA)
Thu 01:12:43 PM 38.2594 -85.7556 165° South 135 155 1,900 -600 Descending FAA TRACON SMA TRACON (SMA)
Thu 01:13:02 PM 38.2478 -85.7517 165° South 138 159 1,700 -732 Descending FAA TRACON SMA TRACON (SMA)
Thu 01:13:24 PM 38.2339 -85.7475 167° South 133 153 1,400 -732 Descending FAA TRACON SMA TRACON (SMA)
Thu 01:13:43 PM 38.2236 -85.7442 166° South 128 147 1,200 -615 Descending FAA TRACON SMA TRACON (SMA)
Thu 01:14:03 PM 38.2103 -85.7392 164° South 128 147 1,000 -615 Descending FAA TRACON SMA TRACON (SMA)
Thu 01:14:22 PM 38.2000 -85.7358 166° South 125 144 800 -615 Descending FAA TRACON SMA TRACON (SMA)
Thu 01:14:42 PM 38.1919 -85.7331 165° South 127 146 600 -600 Descending FAA TRACON SMA TRACON (SMA)
Thu 01:16:00 PM 38.1667 -85.7333 169° South  Level FlightAware Approximate

Login

Don't have an account? Register now (free) for customized features, flight alerts, and more!